Time;durP1;ratioP1;P1;durP2;ratioP2;P2;SDS_P1;SDS_P2;PMS_P1;PMS_P2;Temp;Humidity;BMP_temperature;BMP_pressure;BME280_temperature;BME280_humidity;BME280_pressure;Samples;Min_cycle;Max_cycle;Signal;HPM_P1;HPM_P2
2021/06/24 00:01:24;;;;;;;27.55;8.25;;;;;;;;;;5092283;28;20024;-68
2021/06/24 00:03:50;;;;;;;15.85;6.68;;;;;;;;;;5092529;28;20024;-70
2021/06/24 00:06:17;;;;;;;21.87;9.37;;;;;;;;;;5092597;28;20028;-68
2021/06/24 00:08:43;;;;;;;24.60;8.40;;;;;;;;;;5092111;28;20358;-67
2021/06/24 00:11:10;;;;;;;20.03;8.03;;;;;;;;;;5092278;28;20028;-69
2021/06/24 00:13:37;;;;;;;16.45;7.70;;;;;;;;;;5074276;28;20024;-69
2021/06/24 00:16:03;;;;;;;;;;;;;;;;;;5074641;28;20035;-68
2021/06/24 00:18:29;;;;;;;19.90;7.88;;;;;;;;;;5074165;28;19904;-68
2021/06/24 00:20:56;;;;;;;21.65;8.05;;;;;;;;;;5091797;28;20035;-68
2021/06/24 00:23:22;;;;;;;22.92;8.73;;;;;;;;;;5092283;28;20027;-66
2021/06/24 00:25:48;;;;;;;16.25;7.88;;;;;;;;;;5092146;28;20095;-69
2021/06/24 00:28:15;;;;;;;15.80;8.57;;;;;;;;;;5092091;28;20470;-68
2021/06/24 00:30:42;;;;;;;17.58;7.53;;;;;;;;;;5092117;28;20355;-70
2021/06/24 00:33:08;;;;;;;23.90;8.13;;;;;;;;;;5094471;28;20473;-69
2021/06/24 00:35:34;;;;;;;20.97;9.40;;;;;;;;;;5095500;28;20029;-70
2021/06/24 00:38:00;;;;;;;20.43;7.10;;;;;;;;;;5077445;28;20028;-67
2021/06/24 00:40:27;;;;;;;14.90;7.90;;;;;;;;;;5095866;28;20713;-68
2021/06/24 00:42:54;;;;;;;17.02;7.72;;;;;;;;;;5095561;28;20027;-71
2021/06/24 00:45:20;;;;;;;21.52;6.85;;;;;;;;;;5095701;28;20021;-71
2021/06/24 00:47:46;;;;;;;18.20;8.53;;;;;;;;;;5096488;28;20055;-70
2021/06/24 00:50:13;;;;;;;16.30;7.23;;;;;;;;;;5095383;28;20103;-70
2021/06/24 00:52:39;;;;;;;18.83;7.32;;;;;;;;;;5095494;28;20103;-70
2021/06/24 00:55:06;;;;;;;19.60;8.73;;;;;;;;;;5095557;28;20028;-72
2021/06/24 00:57:32;;;;;;;;;;;;;;;;;;5077539;28;20025;-70
2021/06/24 00:59:58;;;;;;;19.00;7.57;;;;;;;;;;5077212;28;19908;-69
2021/06/24 01:02:25;;;;;;;18.40;7.07;;;;;;;;;;5076970;28;20061;-68
2021/06/24 01:04:51;;;;;;;19.60;7.15;;;;;;;;;;5095712;28;20422;-69
2021/06/24 01:07:17;;;;;;;16.40;8.90;;;;;;;;;;5095259;28;20020;-68
2021/06/24 01:09:43;;;;;;;19.10;7.67;;;;;;;;;;5095241;28;20608;-68
2021/06/24 01:12:10;;;;;;;23.37;7.07;;;;;;;;;;5095254;28;20036;-68
2021/06/24 01:14:36;;;;;;;11.80;7.00;;;;;;;;;;5095226;28;20048;-69
2021/06/24 01:17:03;;;;;;;14.85;6.60;;;;;;;;;;5077076;28;20101;-66
2021/06/24 01:19:29;;;;;;;21.70;7.32;;;;;;;;;;5076950;28;20441;-69
2021/06/24 01:21:56;;;;;;;16.30;5.43;;;;;;;;;;5094874;28;20469;-68
2021/06/24 01:24:22;;;;;;;16.77;6.22;;;;;;;;;;5076570;28;20027;-69
2021/06/24 01:26:49;;;;;;;17.77;4.68;;;;;;;;;;5076620;28;20460;-70
2021/06/24 01:29:16;;;;;;;9.20;4.53;;;;;;;;;;5094889;28;20020;-69
2021/06/24 01:31:42;;;;;;;15.68;5.22;;;;;;;;;;5094544;28;20043;-66
2021/06/24 01:34:09;;;;;;;15.10;4.88;;;;;;;;;;5094435;28;20020;-68
2021/06/24 01:36:35;;;;;;;;;;;;;;;;;;5095398;28;20051;-67
2021/06/24 01:39:02;;;;;;;16.42;5.00;;;;;;;;;;5094484;28;20369;-68
2021/06/24 01:41:28;;;;;;;8.98;3.80;;;;;;;;;;5095035;28;20103;-66
2021/06/24 01:43:54;;;;;;;9.83;4.10;;;;;;;;;;5093895;28;20105;-72
2021/06/24 01:46:20;;;;;;;7.07;4.17;;;;;;;;;;5075911;28;20044;-68
2021/06/24 01:48:46;;;;;;;12.52;5.35;;;;;;;;;;5094417;28;20252;-69
2021/06/24 01:51:12;;;;;;;15.13;4.80;;;;;;;;;;5094515;28;20056;-67
2021/06/24 01:53:38;;;;;;;10.47;3.83;;;;;;;;;;5094390;28;20050;-68
2021/06/24 01:56:05;;;;;;;8.88;3.45;;;;;;;;;;5094142;28;20594;-69
2021/06/24 01:58:32;;;;;;;15.18;3.65;;;;;;;;;;5076114;28;20047;-70
2021/06/24 02:00:59;;;;;;;12.75;4.65;;;;;;;;;;5094192;28;20035;-67
2021/06/24 02:03:25;;;;;;;;;;;;;;;;;;5076323;28;20119;-70
2021/06/24 02:05:53;;;;;;;12.93;6.13;;;;;;;;;;5093957;28;19947;-69
2021/06/24 02:08:20;;;;;;;15.38;4.50;;;;;;;;;;5076137;28;20056;-68
2021/06/24 02:10:47;;;;;;;8.07;3.95;;;;;;;;;;5075703;28;20073;-71
2021/06/24 02:13:13;;;;;;;11.32;3.00;;;;;;;;;;5094042;28;20026;-69
2021/06/24 02:15:40;;;;;;;8.38;3.60;;;;;;;;;;5075429;28;20075;-69
2021/06/24 02:18:06;;;;;;;7.82;2.97;;;;;;;;;;5093769;28;20373;-69
2021/06/24 02:20:32;;;;;;;10.33;4.17;;;;;;;;;;5075570;28;20473;-69
2021/06/24 02:22:58;;;;;;;9.32;3.72;;;;;;;;;;5093688;28;20244;-72
2021/06/24 02:25:26;;;;;;;10.30;3.73;;;;;;;;;;5094260;28;20081;-68
2021/06/24 02:27:52;;;;;;;10.88;3.88;;;;;;;;;;5093189;28;20447;-69
2021/06/24 02:30:18;;;;;;;9.07;4.07;;;;;;;;;;5093553;28;20093;-71
2021/06/24 02:32:45;;;;;;;10.13;4.22;;;;;;;;;;5075480;28;20097;-71
2021/06/24 02:35:13;;;;;;;8.30;4.40;;;;;;;;;;5093467;28;20106;-70
2021/06/24 02:37:39;;;;;;;12.05;4.28;;;;;;;;;;5093584;28;20022;-68
2021/06/24 02:40:06;;;;;;;8.85;3.55;;;;;;;;;;5075031;28;20024;-70
2021/06/24 02:42:33;;;;;;;15.77;3.95;;;;;;;;;;5093224;28;20030;-70
2021/06/24 02:44:59;;;;;;;9.30;3.22;;;;;;;;;;5075180;28;20035;-70
2021/06/24 02:47:25;;;;;;;9.57;4.10;;;;;;;;;;5068316;28;20041;-70
2021/06/24 02:49:51;;;;;;;8.53;4.10;;;;;;;;;;5052926;28;20090;-69
2021/06/24 02:52:17;;;;;;;10.65;3.45;;;;;;;;;;5052676;28;20485;-71
2021/06/24 02:54:43;;;;;;;12.48;3.72;;;;;;;;;;5067989;28;20055;-70
2021/06/24 02:57:10;;;;;;;11.70;3.97;;;;;;;;;;5068036;28;20071;-68
2021/06/24 02:59:36;;;;;;;8.27;3.97;;;;;;;;;;5052956;28;20025;-70
2021/06/24 03:02:02;;;;;;;10.93;3.97;;;;;;;;;;5068377;28;20175;-70
2021/06/24 03:04:28;;;;;;;10.90;4.40;;;;;;;;;;5052851;28;20366;-69
2021/06/24 03:06:55;;;;;;;13.57;4.13;;;;;;;;;;5068076;28;20032;-70
2021/06/24 03:09:21;;;;;;;8.13;3.55;;;;;;;;;;5067952;28;20251;-70
2021/06/24 03:11:48;;;;;;;15.10;4.68;;;;;;;;;;5052701;28;20033;-71
2021/06/24 03:14:14;;;;;;;15.50;5.38;;;;;;;;;;5052409;28;20021;-70
2021/06/24 03:16:41;;;;;;;12.70;3.97;;;;;;;;;;5052816;28;20074;-71
2021/06/24 03:19:07;;;;;;;15.18;4.57;;;;;;;;;;5052600;28;20032;-71
2021/06/24 03:21:34;;;;;;;11.48;3.72;;;;;;;;;;5067769;28;20086;-70
2021/06/24 03:24:00;;;;;;;10.05;4.18;;;;;;;;;;5052580;28;20101;-69
2021/06/24 03:26:26;;;;;;;8.47;4.30;;;;;;;;;;5067928;28;20054;-68
2021/06/24 03:28:52;;;;;;;16.43;4.37;;;;;;;;;;5052265;28;20750;-69
2021/06/24 03:31:18;;;;;;;17.00;5.10;;;;;;;;;;5052049;28;20116;-69
2021/06/24 03:33:45;;;;;;;11.67;4.47;;;;;;;;;;5052410;28;20277;-70
2021/06/24 03:36:11;;;;;;;11.07;4.05;;;;;;;;;;5067986;28;20104;-68
2021/06/24 03:38:37;;;;;;;18.70;6.25;;;;;;;;;;5067755;28;20025;-70
2021/06/24 03:41:03;;;;;;;15.33;4.83;;;;;;;;;;5067834;28;20025;-69
2021/06/24 03:43:30;;;;;;;10.73;4.25;;;;;;;;;;5067603;28;20021;-72
2021/06/24 03:45:56;;;;;;;12.50;5.67;;;;;;;;;;5068448;28;20156;-69
2021/06/24 03:48:22;;;;;;;20.50;5.13;;;;;;;;;;5074435;28;20248;-68
2021/06/24 03:50:48;;;;;;;16.67;6.23;;;;;;;;;;5092014;28;20326;-68
2021/06/24 03:53:14;;;;;;;14.90;6.43;;;;;;;;;;5074483;28;20024;-68
2021/06/24 03:55:44;;;;;;;12.50;4.93;;;;;;;;;;5092263;28;20032;-68
2021/06/24 03:58:11;;;;;;;23.08;6.72;;;;;;;;;;5092455;28;20028;-68
2021/06/24 04:00:40;;;;;;;18.83;5.60;;;;;;;;;;5092862;28;20036;-70
2021/06/24 04:03:06;;;;;;;16.67;4.88;;;;;;;;;;5092434;28;20024;-71
2021/06/24 04:05:32;;;;;;;15.07;5.20;;;;;;;;;;5092757;28;20024;-70
2021/06/24 04:07:59;;;;;;;12.18;6.95;;;;;;;;;;5095128;28;20024;-68
2021/06/24 04:10:25;;;;;;;25.27;8.25;;;;;;;;;;5096269;28;20515;-68
2021/06/24 04:12:52;;;;;;;17.15;6.00;;;;;;;;;;5096249;28;20095;-68
2021/06/24 04:15:18;;;;;;;11.57;5.50;;;;;;;;;;5096200;28;20012;-68
2021/06/24 04:17:44;;;;;;;15.43;4.30;;;;;;;;;;5078057;28;20473;-68
2021/06/24 04:20:10;;;;;;;13.95;4.90;;;;;;;;;;5096112;28;20057;-68
2021/06/24 04:22:36;;;;;;;13.33;5.30;;;;;;;;;;5096521;28;20027;-69
2021/06/24 04:25:02;;;;;;;16.58;6.55;;;;;;;;;;5096121;28;20271;-66
2021/06/24 04:27:29;;;;;;;28.25;7.38;;;;;;;;;;5096178;28;20103;-67
2021/06/24 04:29:55;;;;;;;19.50;7.07;;;;;;;;;;5095826;28;20104;-68
2021/06/24 04:32:21;;;;;;;20.00;5.23;;;;;;;;;;5095775;28;20468;-70
2021/06/24 04:34:47;;;;;;;22.17;7.83;;;;;;;;;;5095939;28;20093;-70
2021/06/24 04:37:13;;;;;;;19.97;7.10;;;;;;;;;;5077331;28;20020;-71
2021/06/24 04:39:39;;;;;;;16.37;5.07;;;;;;;;;;5077472;28;20055;-69
2021/06/24 04:42:05;;;;;;;18.37;5.73;;;;;;;;;;5095449;28;20490;-69
2021/06/24 04:44:31;;;;;;;20.87;5.97;;;;;;;;;;5095714;28;20091;-68
2021/06/24 04:46:58;;;;;;;20.20;5.80;;;;;;;;;;5095287;28;20047;-68
2021/06/24 04:49:24;;;;;;;17.23;6.20;;;;;;;;;;5095392;28;20433;-68
2021/06/24 04:51:51;;;;;;;14.70;4.90;;;;;;;;;;5095469;28;20039;-67
2021/06/24 04:54:17;;;;;;;27.20;6.10;;;;;;;;;;5095677;28;20063;-68
2021/06/24 04:56:43;;;;;;;24.37;5.13;;;;;;;;;;5095253;28;20240;-69
2021/06/24 04:59:10;;;;;;;26.00;4.47;;;;;;;;;;5095078;28;20381;-68
2021/06/24 05:01:36;;;;;;;24.90;4.75;;;;;;;;;;5095241;28;20020;-69
2021/06/24 05:04:02;;;;;;;27.63;5.70;;;;;;;;;;5094956;28;20099;-69
2021/06/24 05:06:28;;;;;;;15.43;3.93;;;;;;;;;;5095106;28;20241;-68
2021/06/24 05:08:54;;;;;;;23.83;6.50;;;;;;;;;;5094860;28;20025;-70
2021/06/24 05:11:21;;;;;;;18.42;4.72;;;;;;;;;;5095118;28;20091;-68
2021/06/24 05:13:47;;;;;;;31.77;5.47;;;;;;;;;;5094973;28;20020;-67
2021/06/24 05:16:13;;;;;;;29.83;5.73;;;;;;;;;;5095326;28;20484;-68
2021/06/24 05:18:39;;;;;;;27.98;6.60;;;;;;;;;;5095007;28;20036;-69
2021/06/24 05:21:05;;;;;;;24.97;5.13;;;;;;;;;;5095192;28;20067;-69
2021/06/24 05:23:31;;;;;;;18.92;4.30;;;;;;;;;;5076693;28;20073;-68
2021/06/24 05:25:58;;;;;;;25.00;5.13;;;;;;;;;;5095067;28;20016;-67
2021/06/24 05:28:24;;;;;;;25.55;4.95;;;;;;;;;;5076631;28;20294;-69
2021/06/24 05:30:50;;;;;;;24.65;3.97;;;;;;;;;;5094891;28;20061;-68
2021/06/24 05:33:16;;;;;;;27.87;6.20;;;;;;;;;;5094943;28;20056;-69
2021/06/24 05:35:43;;;;;;;20.00;4.20;;;;;;;;;;5094900;28;20257;-73
2021/06/24 05:38:11;;;;;;;34.95;5.55;;;;;;;;;;5076400;28;20241;-68
2021/06/24 05:40:38;;;;;;;28.42;4.47;;;;;;;;;;5076697;28;20044;-71
2021/06/24 05:43:04;;;;;;;25.20;5.20;;;;;;;;;;5094605;28;20020;-70
2021/06/24 05:45:31;;;;;;;26.27;6.47;;;;;;;;;;5094439;28;20024;-71
2021/06/24 05:47:57;;;;;;;39.70;4.93;;;;;;;;;;5094514;28;20079;-70
2021/06/24 05:50:24;;;;;;;27.90;5.05;;;;;;;;;;5076046;28;20067;-70
2021/06/24 05:52:50;;;;;;;30.73;5.40;;;;;;;;;;5076256;28;20024;-69
2021/06/24 05:55:17;;;;;;;17.08;4.45;;;;;;;;;;5076277;28;20028;-70
2021/06/24 05:57:43;;;;;;;;;;;;;;;;;;5094632;28;20024;-67
2021/06/24 06:00:12;;;;;;;32.00;6.93;;;;;;;;;;5094570;28;20406;-65
2021/06/24 06:02:39;;;;;;;49.58;5.20;;;;;;;;;;5093960;28;20016;-65
2021/06/24 06:05:05;;;;;;;24.88;5.13;;;;;;;;;;5093744;28;20435;-66
2021/06/24 06:07:31;;;;;;;39.20;6.22;;;;;;;;;;5093948;28;20035;-64
2021/06/24 06:09:57;;;;;;;30.48;5.50;;;;;;;;;;5094129;28;20077;-66
2021/06/24 06:12:26;;;;;;;30.80;5.70;;;;;;;;;;5093568;28;20085;-65
2021/06/24 06:14:52;;;;;;;41.60;5.88;;;;;;;;;;5094263;28;20244;-66
2021/06/24 06:17:19;;;;;;;30.88;5.40;;;;;;;;;;5093745;28;20027;-66
2021/06/24 06:19:45;;;;;;;25.52;4.43;;;;;;;;;;5094193;28;20016;-67
2021/06/24 06:22:11;;;;;;;27.23;4.78;;;;;;;;;;5094212;28;20522;-66
2021/06/24 06:24:39;;;;;;;26.35;5.13;;;;;;;;;;5093661;28;20028;-67
2021/06/24 06:27:05;;;;;;;26.05;4.55;;;;;;;;;;5093892;28;20020;-65
2021/06/24 06:29:31;;;;;;;25.60;5.53;;;;;;;;;;5093663;28;20499;-66
2021/06/24 06:31:57;;;;;;;21.40;4.97;;;;;;;;;;5093536;28;20119;-66
2021/06/24 06:34:23;;;;;;;20.85;3.50;;;;;;;;;;5093401;28;20020;-65
2021/06/24 06:36:49;;;;;;;19.67;3.95;;;;;;;;;;5075332;28;20032;-65
2021/06/24 06:39:15;;;;;;;17.65;3.92;;;;;;;;;;5093106;28;20145;-64
2021/06/24 06:41:42;;;;;;;28.80;3.88;;;;;;;;;;5093748;28;20075;-66
2021/06/24 06:44:08;;;;;;;27.90;5.45;;;;;;;;;;5093247;28;20107;-66
2021/06/24 06:46:34;;;;;;;20.85;5.07;;;;;;;;;;5093069;28;20048;-65
2021/06/24 06:49:00;;;;;;;20.45;3.42;;;;;;;;;;5093822;28;20048;-65
2021/06/24 06:51:27;;;;;;;27.55;4.55;;;;;;;;;;5093556;28;20388;-67
2021/06/24 06:53:53;;;;;;;25.85;5.20;;;;;;;;;;5093233;28;20115;-68
2021/06/24 06:56:19;;;;;;;24.38;4.45;;;;;;;;;;5093446;28;20051;-66
2021/06/24 06:58:45;;;;;;;22.38;3.42;;;;;;;;;;5093301;28;20025;-66
2021/06/24 07:01:11;;;;;;;23.45;4.10;;;;;;;;;;5093120;28;20028;-66
2021/06/24 07:03:37;;;;;;;25.92;3.42;;;;;;;;;;5092781;28;20086;-66
2021/06/24 07:06:03;;;;;;;18.83;3.65;;;;;;;;;;5092845;28;20358;-65
2021/06/24 07:08:30;;;;;;;20.13;3.97;;;;;;;;;;5092743;28;20503;-65
2021/06/24 07:10:56;;;;;;;25.52;5.03;;;;;;;;;;5092716;28;20036;-66
2021/06/24 07:13:22;;;;;;;39.95;5.15;;;;;;;;;;5092598;28;20024;-67
2021/06/24 07:15:50;;;;;;;24.58;3.85;;;;;;;;;;5093423;28;20027;-66
2021/06/24 07:18:16;;;;;;;24.75;3.95;;;;;;;;;;5092458;28;20020;-66
2021/06/24 07:20:43;;;;;;;18.50;3.30;;;;;;;;;;5092894;28;20121;-67
2021/06/24 07:23:09;;;;;;;22.58;3.67;;;;;;;;;;5092507;28;20030;-65
2021/06/24 07:25:35;;;;;;;17.52;4.15;;;;;;;;;;5074499;28;20037;-66
2021/06/24 07:28:01;;;;;;;34.22;5.13;;;;;;;;;;5092657;28;20030;-66
2021/06/24 07:30:28;;;;;;;28.13;4.20;;;;;;;;;;5092661;28;20077;-65
2021/06/24 07:32:54;;;;;;;12.82;3.28;;;;;;;;;;5092606;28;20142;-65
2021/06/24 07:35:20;;;;;;;29.75;4.35;;;;;;;;;;5092330;28;20362;-65
2021/06/24 07:37:46;;;;;;;37.00;5.80;;;;;;;;;;5092513;28;20411;-66
2021/06/24 07:40:13;;;;;;;30.88;4.30;;;;;;;;;;5092343;28;20020;-66
2021/06/24 07:42:39;;;;;;;;;;;;;;;;;;5094798;28;20020;-66
2021/06/24 07:45:05;;;;;;;28.35;4.35;;;;;;;;;;5097044;28;20017;-66
2021/06/24 07:47:31;;;;;;;22.00;3.92;;;;;;;;;;5096589;28;20446;-65
2021/06/24 07:49:57;;;;;;;23.42;5.93;;;;;;;;;;5096501;28;20426;-65
2021/06/24 07:52:24;;;;;;;20.05;3.53;;;;;;;;;;5096466;28;20040;-65
2021/06/24 07:54:50;;;;;;;35.17;5.45;;;;;;;;;;5096921;28;20028;-66
2021/06/24 07:57:16;;;;;;;19.90;4.57;;;;;;;;;;5096594;28;20522;-66
2021/06/24 07:59:42;;;;;;;18.02;4.07;;;;;;;;;;5096128;28;20028;-65
2021/06/24 08:02:09;;;;;;;19.15;4.45;;;;;;;;;;5096461;28;20495;-67
2021/06/24 08:04:35;;;;;;;21.00;3.78;;;;;;;;;;5096472;28;20032;-66
2021/06/24 08:07:01;;;;;;;19.48;3.55;;;;;;;;;;5096289;28;20097;-65
2021/06/24 08:09:27;;;;;;;;;;;;;;;;;;5096543;28;20024;-67
2021/06/24 08:11:53;;;;;;;;;;;;;;;;;;5096490;28;19919;-67
2021/06/24 08:14:21;;;;;;;29.98;4.60;;;;;;;;;;5096276;28;19951;-67
2021/06/24 08:16:47;;;;;;;30.33;4.60;;;;;;;;;;5096213;28;20027;-67
2021/06/24 08:19:13;;;;;;;22.20;3.63;;;;;;;;;;5096003;28;20030;-67
2021/06/24 08:21:39;;;;;;;22.65;4.82;;;;;;;;;;5095843;28;20434;-65
2021/06/24 08:24:06;;;;;;;18.67;5.10;;;;;;;;;;5096097;28;20032;-65
2021/06/24 08:26:32;;;;;;;21.73;3.53;;;;;;;;;;5096200;28;20564;-66
2021/06/24 08:28:58;;;;;;;16.05;4.18;;;;;;;;;;5095604;28;20066;-65
2021/06/24 08:31:24;;;;;;;46.58;5.88;;;;;;;;;;5095907;28;20481;-66
2021/06/24 08:33:51;;;;;;;25.95;5.45;;;;;;;;;;5095880;28;20024;-66
2021/06/24 08:36:18;;;;;;;17.95;4.80;;;;;;;;;;5096062;28;20028;-67
2021/06/24 08:38:45;;;;;;;26.25;4.55;;;;;;;;;;5095825;28;20415;-66
2021/06/24 08:41:14;;;;;;;17.00;4.88;;;;;;;;;;5095559;28;20057;-66
2021/06/24 08:43:40;;;;;;;25.92;5.25;;;;;;;;;;5095960;28;20060;-66
2021/06/24 08:46:06;;;;;;;;;;;;;;;;;;5095916;28;20020;-67
2021/06/24 08:48:34;;;;;;;23.00;5.70;;;;;;;;;;5095598;28;19904;-66
2021/06/24 08:51:00;;;;;;;25.98;4.00;;;;;;;;;;5095663;28;20024;-66
2021/06/24 08:53:26;;;;;;;23.35;6.45;;;;;;;;;;5095218;28;20101;-66
2021/06/24 08:55:55;;;;;;;;;;;;;;;;;;5095520;28;20031;-66
2021/06/24 08:58:22;;;;;;;19.85;5.53;;;;;;;;;;5077568;28;20249;-64
2021/06/24 09:00:49;;;;;;;24.90;6.68;;;;;;;;;;5095404;28;20488;-67
2021/06/24 09:03:18;;;;;;;30.33;5.80;;;;;;;;;;5095496;28;20103;-65
2021/06/24 09:05:51;;;;;;;33.88;6.07;;;;;;;;;;5095221;28;20021;-65
2021/06/24 09:08:26;;;;;;;25.15;4.72;;;;;;;;;;5095291;28;20024;-66
2021/06/24 09:11:09;;;;;;;26.83;6.03;;;;;;;;;;5094713;28;20493;-67
2021/06/24 09:13:35;;;;;;;31.40;5.65;;;;;;;;;;5095387;28;20024;-66
2021/06/24 09:16:06;;;;;;;38.13;7.50;;;;;;;;;;5094218;28;20020;-65
2021/06/24 09:18:32;;;;;;;25.95;6.75;;;;;;;;;;5094873;28;20016;-66
2021/06/24 09:20:58;;;;;;;26.98;5.30;;;;;;;;;;5094936;28;20054;-66
2021/06/24 09:23:25;;;;;;;32.90;7.35;;;;;;;;;;5094509;28;20101;-64
2021/06/24 09:26:11;;;;;;;23.00;5.78;;;;;;;;;;5093537;28;20368;-65
2021/06/24 09:28:41;;;;;;;27.10;6.45;;;;;;;;;;5092425;28;20028;-67
2021/06/24 09:31:27;;;;;;;29.30;6.70;;;;;;;;;;5093363;28;20066;-67
2021/06/24 09:33:54;;;;;;;32.65;7.15;;;;;;;;;;5090777;28;20040;-66
2021/06/24 09:36:33;;;;;;;30.15;7.60;;;;;;;;;;5093366;28;20020;-66
2021/06/24 09:38:59;;;;;;;29.33;7.38;;;;;;;;;;5091329;28;20023;-66
2021/06/24 09:41:25;;;;;;;26.30;7.57;;;;;;;;;;5093020;28;20020;-67
2021/06/24 09:43:51;;;;;;;31.25;6.85;;;;;;;;;;5092693;28;20027;-66
2021/06/24 09:46:23;;;;;;;19.40;6.97;;;;;;;;;;5093017;28;20066;-65
2021/06/24 09:48:52;;;;;;;36.05;9.80;;;;;;;;;;5092957;28;20049;-66
2021/06/24 09:51:18;;;;;;;30.67;8.00;;;;;;;;;;5092394;28;20031;-65
2021/06/24 09:53:48;;;;;;;30.75;9.80;;;;;;;;;;5093023;28;20457;-66
2021/06/24 09:56:25;;;;;;;26.02;7.35;;;;;;;;;;5090177;28;20024;-66
2021/06/24 09:58:52;;;;;;;29.30;8.20;;;;;;;;;;5092417;28;20372;-66
2021/06/24 10:01:28;;;;;;;24.13;6.60;;;;;;;;;;5092465;28;20090;-67
2021/06/24 10:03:56;;;;;;;22.60;6.35;;;;;;;;;;5090375;28;20513;-66
2021/06/24 10:06:23;;;;;;;26.60;6.57;;;;;;;;;;5091540;28;20044;-66
2021/06/24 10:08:50;;;;;;;31.15;8.05;;;;;;;;;;5092563;28;20031;-65
2021/06/24 10:11:16;;;;;;;31.15;7.32;;;;;;;;;;5092414;28;20546;-65
2021/06/24 10:13:42;;;;;;;23.83;7.50;;;;;;;;;;5092516;28;20020;-66
2021/06/24 10:16:10;;;;;;;25.42;7.35;;;;;;;;;;5092446;28;20016;-64
2021/06/24 10:18:36;;;;;;;24.98;7.90;;;;;;;;;;5092276;28;20032;-67
2021/06/24 10:21:03;;;;;;;28.20;7.85;;;;;;;;;;5092127;28;20016;-67
2021/06/24 10:23:29;;;;;;;30.08;6.95;;;;;;;;;;5092264;28;20065;-65
2021/06/24 10:25:56;;;;;;;30.88;7.22;;;;;;;;;;5092274;28;20175;-66
2021/06/24 10:28:23;;;;;;;34.58;7.07;;;;;;;;;;5092149;28;20016;-67
2021/06/24 10:30:49;;;;;;;36.25;7.45;;;;;;;;;;5092027;28;20495;-71
2021/06/24 10:33:16;;;;;;;31.00;7.32;;;;;;;;;;5092079;28;20028;-67
2021/06/24 10:35:44;;;;;;;33.38;8.63;;;;;;;;;;5092275;28;20028;-64
2021/06/24 10:38:13;;;;;;;39.05;8.05;;;;;;;;;;5092242;28;20050;-66
2021/06/24 10:40:43;;;;;;;25.42;8.20;;;;;;;;;;5092136;28;20016;-66
2021/06/24 10:43:09;;;;;;;30.20;7.32;;;;;;;;;;5092284;28;20012;-66
2021/06/24 10:45:35;;;;;;;;;;;;;;;;;;5092435;28;20046;-66
2021/06/24 10:48:20;;;;;;;27.58;7.60;;;;;;;;;;5073393;28;20360;-66
2021/06/24 10:50:56;;;;;;;35.63;7.90;;;;;;;;;;5090910;28;20469;-67
2021/06/24 10:53:22;;;;;;;32.20;6.88;;;;;;;;;;5090657;28;20023;-65
2021/06/24 10:55:50;;;;;;;28.08;9.57;;;;;;;;;;5091258;28;20101;-66
2021/06/24 10:58:19;;;;;;;29.92;8.32;;;;;;;;;;5091588;28;20135;-66
2021/06/24 11:00:49;;;;;;;31.08;7.93;;;;;;;;;;5091634;28;20095;-65
2021/06/24 11:03:16;;;;;;;36.78;9.45;;;;;;;;;;5065584;28;20031;-66
2021/06/24 11:05:46;;;;;;;32.13;7.63;;;;;;;;;;5091892;28;20078;-68
2021/06/24 11:08:16;;;;;;;40.80;8.88;;;;;;;;;;5091145;28;20016;-66
2021/06/24 11:10:56;;;;;;;28.42;9.00;;;;;;;;;;5091647;28;20474;-65
2021/06/24 11:13:41;;;;;;;30.55;8.88;;;;;;;;;;5090178;28;20059;-67
2021/06/24 11:16:08;;;;;;;27.77;8.05;;;;;;;;;;5090239;28;20024;-66
2021/06/24 11:18:34;;;;;;;27.45;8.32;;;;;;;;;;5088957;28;20065;-66
2021/06/24 11:21:01;;;;;;;;;;;;;;;;;;5092217;28;20035;-66
2021/06/24 11:23:38;;;;;;;45.15;9.13;;;;;;;;;;5091548;28;19908;-66
2021/06/24 11:26:09;;;;;;;38.05;8.50;;;;;;;;;;5066583;28;20020;-66
2021/06/24 11:28:40;;;;;;;31.80;8.75;;;;;;;;;;5089891;28;20024;-64
2021/06/24 11:31:07;;;;;;;33.97;8.93;;;;;;;;;;5092334;28;20093;-66
2021/06/24 11:33:36;;;;;;;33.35;8.77;;;;;;;;;;5092414;28;20035;-67
2021/06/24 11:36:24;;;;;;;36.28;8.20;;;;;;;;;;5092519;28;20016;-64
2021/06/24 11:38:51;;;;;;;24.60;7.70;;;;;;;;;;5092706;28;20065;-64
2021/06/24 11:41:21;;;;;;;29.10;8.80;;;;;;;;;;5092318;28;20043;-66
2021/06/24 11:44:00;;;;;;;31.85;7.40;;;;;;;;;;5092179;28;20441;-67
2021/06/24 11:46:27;;;;;;;26.92;7.55;;;;;;;;;;5092710;28;20048;-65
2021/06/24 11:49:12;;;;;;;29.50;8.88;;;;;;;;;;5092729;28;20085;-68
2021/06/24 12:00:40;;;;;;;38.30;8.20;;;;;;;;;;5092478;28;20055;-66
2021/06/24 12:05:08;;;;;;;39.25;7.57;;;;;;;;;;5092291;28;20032;-68
2021/06/24 12:07:35;;;;;;;34.85;8.85;;;;;;;;;;5092299;28;20053;-69
2021/06/24 12:10:01;;;;;;;33.70;8.07;;;;;;;;;;5092193;28;20194;-69
2021/06/24 12:12:28;;;;;;;40.70;9.13;;;;;;;;;;5092324;28;20085;-66
2021/06/24 12:14:56;;;;;;;42.65;9.25;;;;;;;;;;5074061;28;20048;-69
2021/06/24 12:17:25;;;;;;;56.47;9.25;;;;;;;;;;5074958;28;20448;-69
2021/06/24 12:20:04;;;;;;;35.03;9.38;;;;;;;;;;5091818;28;20029;-66
2021/06/24 12:22:37;;;;;;;30.77;6.68;;;;;;;;;;5091291;28;20030;-67
2021/06/24 12:25:05;;;;;;;36.75;8.77;;;;;;;;;;5091726;28;20024;-66
2021/06/24 12:27:42;;;;;;;38.65;9.18;;;;;;;;;;5092156;28;20028;-65
2021/06/24 12:30:29;;;;;;;44.35;9.23;;;;;;;;;;5095981;28;20020;-66
2021/06/24 12:32:57;;;;;;;37.92;8.65;;;;;;;;;;5095452;28;20036;-66
2021/06/24 12:35:23;;;;;;;46.58;8.52;;;;;;;;;;5095874;28;20078;-66
2021/06/24 12:37:50;;;;;;;34.50;7.15;;;;;;;;;;5095734;28;20078;-66
2021/06/24 12:40:17;;;;;;;38.22;8.35;;;;;;;;;;5095752;28;20024;-65
2021/06/24 12:42:47;;;;;;;41.20;9.38;;;;;;;;;;5095659;28;20430;-66
2021/06/24 12:45:15;;;;;;;40.80;9.25;;;;;;;;;;5095883;28;20020;-66
2021/06/24 12:47:43;;;;;;;39.25;9.00;;;;;;;;;;5095184;28;20079;-67
2021/06/24 12:50:18;;;;;;;37.75;7.88;;;;;;;;;;5095538;28;20345;-67
2021/06/24 12:52:45;;;;;;;45.85;9.07;;;;;;;;;;5095142;28;20492;-64
2021/06/24 12:55:31;;;;;;;50.25;9.55;;;;;;;;;;5095513;28;20056;-65
2021/06/24 12:57:59;;;;;;;39.60;9.15;;;;;;;;;;5095531;28;20111;-68
2021/06/24 13:00:26;;;;;;;41.50;8.43;;;;;;;;;;5095230;28;20052;-68
2021/06/24 13:02:53;;;;;;;47.58;8.13;;;;;;;;;;5095132;28;20512;-67
2021/06/24 13:05:26;;;;;;;34.33;7.60;;;;;;;;;;5095239;28;20368;-66
2021/06/24 13:07:59;;;;;;;47.55;10.82;;;;;;;;;;5076933;28;20108;-67
2021/06/24 13:10:25;;;;;;;40.53;8.82;;;;;;;;;;5095061;28;20036;-66
2021/06/24 13:12:52;;;;;;;29.23;8.13;;;;;;;;;;5094980;28;20077;-67
2021/06/24 13:15:31;;;;;;;35.75;7.30;;;;;;;;;;5094904;28;20022;-66
2021/06/24 13:17:57;;;;;;;42.58;9.18;;;;;;;;;;5075285;28;20031;-63
2021/06/24 13:20:24;;;;;;;38.40;8.60;;;;;;;;;;5093034;28;20422;-66
2021/06/24 13:22:50;;;;;;;43.72;7.78;;;;;;;;;;5093823;28;20027;-65
2021/06/24 13:25:20;;;;;;;37.25;7.70;;;;;;;;;;5094581;28;20020;-65
2021/06/24 13:27:46;;;;;;;38.03;8.60;;;;;;;;;;5094379;28;20134;-65
2021/06/24 13:30:13;;;;;;;42.17;9.07;;;;;;;;;;5094405;28;20020;-66
2021/06/24 13:32:49;;;;;;;42.85;8.48;;;;;;;;;;5076292;28;20105;-65
2021/06/24 13:35:21;;;;;;;41.72;9.57;;;;;;;;;;5094565;28;20035;-66
2021/06/24 13:37:57;;;;;;;45.30;9.10;;;;;;;;;;5094898;28;20461;-66
2021/06/24 13:40:26;;;;;;;47.25;9.23;;;;;;;;;;5093289;28;20100;-66
2021/06/24 13:42:56;;;;;;;39.22;8.88;;;;;;;;;;5094882;28;20365;-67
2021/06/24 13:45:22;;;;;;;34.10;8.98;;;;;;;;;;5094632;28;20023;-67
2021/06/24 13:47:48;;;;;;;34.88;8.57;;;;;;;;;;5075993;28;20075;-67
2021/06/24 13:50:16;;;;;;;45.50;8.98;;;;;;;;;;5094445;28;20016;-68
2021/06/24 13:52:42;;;;;;;51.38;10.27;;;;;;;;;;5092820;28;20362;-66
2021/06/24 13:55:09;;;;;;;37.33;8.30;;;;;;;;;;5069368;28;20031;-67
2021/06/24 13:57:35;;;;;;;43.65;6.28;;;;;;;;;;5092740;28;20476;-65
2021/06/24 14:00:01;;;;;;;;;;;;;;;;;;5093460;28;20024;-68
2021/06/24 14:02:27;;;;;;;46.45;9.43;;;;;;;;;;5092737;28;19965;-68
2021/06/24 14:04:53;;;;;;;;;;;;;;;;;;5093097;28;20020;-68
2021/06/24 14:07:20;;;;;;;52.15;7.43;;;;;;;;;;5092849;28;19918;-67
2021/06/24 14:09:46;;;;;;;40.03;7.18;;;;;;;;;;5092489;28;20021;-66
2021/06/24 14:12:13;;;;;;;41.75;8.07;;;;;;;;;;5092876;28;20065;-67
2021/06/24 14:14:39;;;;;;;40.30;8.85;;;;;;;;;;5092390;28;20044;-66
2021/06/24 14:17:05;;;;;;;36.47;7.00;;;;;;;;;;5092687;28;20129;-67
2021/06/24 14:19:31;;;;;;;;;;;;;;;;;;5074916;28;20481;-66
2021/06/24 14:21:58;;;;;;;43.58;7.32;;;;;;;;;;5092840;28;19919;-68
2021/06/24 14:24:25;;;;;;;41.45;7.22;;;;;;;;;;5089924;28;20058;-66
2021/06/24 14:26:55;;;;;;;42.40;8.32;;;;;;;;;;5074375;28;20077;-67
2021/06/24 14:29:21;;;;;;;47.13;7.40;;;;;;;;;;5092737;28;20023;-66
2021/06/24 14:31:48;;;;;;;39.92;7.68;;;;;;;;;;5075240;28;20032;-64
2021/06/24 14:34:14;;;;;;;44.38;8.57;;;;;;;;;;5093833;28;20020;-66
2021/06/24 14:36:40;;;;;;;40.53;8.63;;;;;;;;;;5093719;28;20035;-68
2021/06/24 14:39:08;;;;;;;48.72;8.55;;;;;;;;;;5093444;28;20414;-66
2021/06/24 14:41:35;;;;;;;46.67;9.07;;;;;;;;;;5093287;28;20420;-66
2021/06/24 14:44:01;;;;;;;42.38;7.70;;;;;;;;;;5093617;28;20032;-65
2021/06/24 14:46:27;;;;;;;56.30;8.48;;;;;;;;;;5093132;28;20067;-67
2021/06/24 14:48:53;;;;;;;49.35;8.88;;;;;;;;;;5093187;28;20032;-67